Time;durP1;ratioP1;P1;durP2;ratioP2;P2;SDS_P1;SDS_P2;PMS_P1;PMS_P2;Temp;Humidity;BMP_temperature;BMP_pressure;BME280_temperature;BME280_humidity;BME280_pressure;Samples;Min_cycle;Max_cycle;Signal;HPM_P1;HPM_P2
2024/02/29 00:01:27;;;;;;;8.27;4.25;;;;;;;5.25;57.30;97482.81;4997160;28;20085;-79
2024/02/29 00:03:53;;;;;;;7.68;4.28;;;;;;;5.30;57.44;97477.03;4975392;28;20493;-79
2024/02/29 00:06:18;;;;;;;6.57;3.85;;;;;;;5.31;57.14;97478.59;5006831;28;20052;-79
2024/02/29 00:08:43;;;;;;;7.35;4.50;;;;;;;5.20;57.61;97464.53;5008298;28;20095;-79
2024/02/29 00:11:09;;;;;;;7.18;4.13;;;;;;;5.23;57.61;97461.56;5009206;28;20064;-78
2024/02/29 00:13:34;;;;;;;7.03;4.18;;;;;;;5.23;57.98;97463.34;5007904;28;20042;-84
2024/02/29 00:16:00;;;;;;;7.45;5.25;;;;;;;5.20;57.68;97467.13;5001022;28;20064;-83
2024/02/29 00:18:25;;;;;;;8.77;5.05;;;;;;;5.30;58.08;97461.56;5025555;28;20041;-83
2024/02/29 00:20:50;;;;;;;9.55;5.55;;;;;;;5.37;58.49;97458.94;4992493;28;20376;-84
2024/02/29 00:23:16;;;;;;;9.82;5.18;;;;;;;5.35;58.25;97464.31;4991575;28;20029;-84
2024/02/29 00:25:41;;;;;;;11.88;6.03;;;;;;;5.29;59.04;97457.38;4992445;28;20034;-83
2024/02/29 00:28:07;;;;;;;11.10;6.03;;;;;;;5.34;59.79;97462.72;4996078;28;20034;-84
2024/02/29 00:30:32;;;;;;;16.20;7.70;;;;;;;5.36;59.88;97460.72;5008289;28;20048;-83
2024/02/29 00:32:57;;;;;;;14.35;6.88;;;;;;;5.35;59.00;97448.81;5008303;28;20034;-82
2024/02/29 00:35:23;;;;;;;15.02;6.93;;;;;;;5.54;58.79;97451.53;4977874;28;20593;-84
2024/02/29 00:37:48;;;;;;;14.25;7.57;;;;;;;5.51;59.35;97442.41;5003667;28;20522;-83
2024/02/29 00:40:14;;;;;;;18.55;8.20;;;;;;;5.59;58.97;97451.72;5024874;28;20033;-83
2024/02/29 00:42:40;;;;;;;22.55;9.85;;;;;;;5.57;59.97;97448.53;4986650;28;20034;-84
2024/02/29 00:45:06;;;;;;;22.48;10.50;;;;;;;5.55;59.99;97447.94;4991283;28;20394;-84
2024/02/29 00:47:31;;;;;;;28.50;11.82;;;;;;;5.60;59.98;97441.19;4995014;28;20038;-83
2024/02/29 00:49:56;;;;;;;23.35;10.43;;;;;;;5.77;59.93;97456.19;4985513;28;20036;-84
2024/02/29 00:52:22;;;;;;;21.58;10.20;;;;;;;5.79;59.82;97449.84;5007174;28;20033;-78
2024/02/29 00:54:47;;;;;;;26.52;11.20;;;;;;;5.84;60.07;97451.00;5007247;28;20346;-78
2024/02/29 00:57:13;;;;;;;24.25;10.80;;;;;;;5.78;59.71;97440.50;5001463;28;20088;-79
2024/02/29 00:59:38;;;;;;;21.30;10.00;;;;;;;5.82;59.42;97433.91;4991153;28;20568;-78
2024/02/29 01:02:04;;;;;;;19.25;10.18;;;;;;;5.77;59.45;97431.16;4975731;28;20026;-78
2024/02/29 01:04:29;;;;;;;21.35;10.07;;;;;;;5.72;60.68;97437.94;4999469;28;20564;-78
2024/02/29 01:06:56;;;;;;;19.52;9.40;;;;;;;5.62;60.04;97433.22;5007214;28;20045;-78
2024/02/29 01:09:26;;;;;;;22.10;10.13;;;;;;;5.54;61.13;97423.91;5006478;28;20405;-78
2024/02/29 01:11:53;;;;;;;20.77;10.02;;;;;;;5.54;61.75;97423.91;4991781;28;20036;-78
2024/02/29 01:14:18;;;;;;;17.70;9.18;;;;;;;5.53;62.09;97422.31;4990050;28;20497;-78
2024/02/29 01:16:45;;;;;;;21.92;10.13;;;;;;;5.51;61.33;97413.22;5006701;28;20524;-78
2024/02/29 01:19:11;;;;;;;19.83;10.25;;;;;;;5.51;61.95;97406.25;5008095;28;20031;-78
2024/02/29 01:21:38;;;;;;;18.92;9.52;;;;;;;5.53;61.20;97413.78;4990630;28;20030;-79
2024/02/29 01:24:05;;;;;;;19.33;9.15;;;;;;;5.51;61.46;97406.25;4990537;28;20088;-78
2024/02/29 01:26:32;;;;;;;23.13;11.13;;;;;;;5.47;61.68;97405.09;5008398;28;20437;-78
2024/02/29 01:28:58;;;;;;;20.33;10.38;;;;;;;5.45;61.84;97404.50;4990162;28;20026;-78
2024/02/29 01:31:23;;;;;;;22.83;10.10;;;;;;;5.50;61.75;97394.34;4990364;28;20430;-78
2024/02/29 01:33:48;;;;;;;20.20;9.45;;;;;;;5.54;61.52;97399.88;5006601;28;20077;-78
2024/02/29 01:36:14;;;;;;;22.33;10.15;;;;;;;5.50;61.84;97393.53;4982654;28;20041;-79
2024/02/29 01:38:39;;;;;;;19.85;9.73;;;;;;;5.47;62.42;97383.63;4990768;28;20394;-78
2024/02/29 01:41:05;;;;;;;16.63;8.70;;;;;;;5.48;61.57;97386.00;4976068;28;20493;-83
2024/02/29 01:43:31;;;;;;;21.00;9.68;;;;;;;5.44;61.78;97371.91;4976510;28;20394;-83
2024/02/29 01:46:16;;;;;;;19.70;9.68;;;;;;;5.53;62.23;97375.06;5007494;28;20506;-83
2024/02/29 01:48:42;;;;;;;21.70;10.63;;;;;;;5.34;62.21;97364.59;4997690;28;20389;-84
2024/02/29 01:51:08;;;;;;;20.58;9.60;;;;;;;5.44;62.18;97364.97;5010645;28;20038;-83
2024/02/29 01:53:34;;;;;;;16.58;7.32;;;;;;;5.49;61.14;97355.81;4990944;28;20026;-83
2024/02/29 01:56:00;;;;;;;20.67;8.23;;;;;;;5.39;60.39;97353.66;4974574;28;20056;-83
2024/02/29 01:58:26;;;;;;;18.42;9.43;;;;;;;5.40;60.63;97356.06;4999847;28;20387;-83
2024/02/29 02:00:52;;;;;;;17.80;8.10;;;;;;;5.39;60.64;97345.91;5007095;28;20490;-83
2024/02/29 02:03:17;;;;;;;21.85;9.05;;;;;;;5.41;60.74;97343.91;4990468;28;20029;-83
2024/02/29 02:05:42;;;;;;;19.55;9.18;;;;;;;5.33;59.98;97337.22;5001716;28;20108;-83
2024/02/29 02:08:08;;;;;;;18.35;9.40;;;;;;;5.30;60.16;97340.22;5007062;28;20081;-83
2024/02/29 02:10:33;;;;;;;18.20;8.15;;;;;;;5.38;59.88;97347.72;4984362;28;20053;-83
2024/02/29 02:12:59;;;;;;;19.98;8.77;;;;;;;5.32;60.08;97343.38;4995962;28;20041;-83
2024/02/29 02:15:24;;;;;;;18.42;8.02;;;;;;;5.31;59.86;97344.34;4990609;28;20115;-83
2024/02/29 02:17:50;;;;;;;17.67;8.85;;;;;;;5.18;60.55;97345.22;4991235;28;20033;-83
2024/02/29 02:20:18;;;;;;;18.05;8.38;;;;;;;5.18;59.98;97337.47;4975474;28;20026;-83
2024/02/29 02:22:44;;;;;;;20.30;7.88;;;;;;;5.20;60.14;97342.44;4989935;28;20514;-83
2024/02/29 02:25:09;;;;;;;17.92;8.88;;;;;;;5.13;60.29;97339.09;4997018;28;20124;-79
2024/02/29 02:27:37;;;;;;;20.67;9.73;;;;;;;5.12;60.75;97334.94;4973994;28;20433;-78
2024/02/29 02:30:06;;;;;;;19.17;8.27;;;;;;;5.06;60.50;97327.00;5009227;28;20494;-78
2024/02/29 02:32:33;;;;;;;16.75;7.00;;;;;;;5.15;60.19;97329.34;5009647;28;20386;-78
2024/02/29 02:34:58;;;;;;;19.30;8.32;;;;;;;5.06;59.09;97324.41;4995357;28;20138;-79
2024/02/29 02:37:23;;;;;;;14.90;7.05;;;;;;;5.00;59.78;97316.72;5000321;28;20224;-78
2024/02/29 02:39:49;;;;;;;15.75;7.82;;;;;;;4.97;58.99;97322.28;5011112;28;20390;-78
2024/02/29 02:42:14;;;;;;;20.52;8.82;;;;;;;4.98;59.36;97323.88;5017287;28;20045;-78
2024/02/29 02:44:39;;;;;;;17.10;7.95;;;;;;;4.93;59.45;97318.53;4977428;28;20040;-78
2024/02/29 02:47:05;;;;;;;16.60;7.75;;;;;;;4.79;59.56;97310.81;4976886;28;20397;-79
2024/02/29 02:49:30;;;;;;;17.85;8.93;;;;;;;4.79;60.20;97300.50;4992892;28;20045;-78
2024/02/29 02:51:56;;;;;;;16.55;8.07;;;;;;;4.82;59.74;97304.47;4976909;28;20049;-78
2024/02/29 02:54:21;;;;;;;19.27;7.95;;;;;;;4.67;59.59;97289.25;5009182;28;20068;-78
2024/02/29 02:56:46;;;;;;;17.85;8.18;;;;;;;4.66;60.95;97291.03;4989996;28;20061;-78
2024/02/29 02:59:12;;;;;;;18.35;8.75;;;;;;;4.57;60.43;97287.09;4993621;28;20037;-79
2024/02/29 03:01:37;;;;;;;14.63;7.60;;;;;;;4.53;60.69;97285.91;5001882;28;20041;-78
2024/02/29 03:04:04;;;;;;;14.90;7.35;;;;;;;4.52;59.74;97278.38;5002656;28;20038;-79
2024/02/29 03:06:30;;;;;;;16.55;7.07;;;;;;;4.44;60.21;97277.59;4993218;28;20451;-78
2024/02/29 03:08:55;;;;;;;16.88;7.95;;;;;;;4.54;60.14;97297.00;5005414;28;20129;-79
2024/02/29 03:11:21;;;;;;;16.52;8.77;;;;;;;4.46;59.30;97267.09;5017855;28;20157;-78
2024/02/29 03:13:46;;;;;;;13.52;6.65;;;;;;;4.57;59.26;97279.34;4976197;28;20064;-78
2024/02/29 03:16:12;;;;;;;17.30;7.85;;;;;;;4.63;58.94;97281.13;4976473;28;20069;-78
2024/02/29 03:18:37;;;;;;;16.58;7.30;;;;;;;4.56;58.78;97275.19;4992628;28;20038;-78
2024/02/29 03:21:03;;;;;;;16.00;7.40;;;;;;;4.44;60.22;97267.28;5008499;28;20045;-79
2024/02/29 03:23:29;;;;;;;15.35;6.82;;;;;;;4.44;60.04;97262.13;5000911;28;20132;-78
2024/02/29 03:25:54;;;;;;;14.52;6.63;;;;;;;4.44;59.62;97266.50;4992793;28;20128;-78
2024/02/29 03:28:20;;;;;;;14.00;7.07;;;;;;;4.45;59.99;97263.72;4992375;28;20045;-78
2024/02/29 03:30:45;;;;;;;12.55;6.32;;;;;;;4.44;59.47;97251.81;5008615;28;20061;-79
2024/02/29 03:33:10;;;;;;;12.98;6.75;;;;;;;4.52;59.28;97250.78;5008560;28;20045;-79
2024/02/29 03:35:36;;;;;;;13.07;6.43;;;;;;;4.54;59.34;97246.25;5002014;28;20044;-78
2024/02/29 03:38:02;;;;;;;13.93;6.05;;;;;;;4.56;59.75;97253.75;4991910;28;20065;-79
2024/02/29 03:40:28;;;;;;;14.70;6.55;;;;;;;4.54;59.52;97246.25;5001815;28;20026;-78
2024/02/29 03:42:53;;;;;;;13.85;6.93;;;;;;;4.53;60.13;97249.81;4994661;28;20041;-78
2024/02/29 03:45:18;;;;;;;14.95;7.05;;;;;;;4.57;60.52;97255.34;4991968;28;20030;-78
2024/02/29 03:47:44;;;;;;;13.93;6.57;;;;;;;4.55;60.30;97237.50;5002803;28;20636;-79
2024/02/29 03:50:13;;;;;;;14.35;7.97;;;;;;;4.57;60.12;97250.97;4992076;28;20033;-79
2024/02/29 03:52:38;;;;;;;18.75;7.55;;;;;;;4.50;60.63;97240.69;4976058;28;20083;-78
2024/02/29 03:55:04;;;;;;;14.80;7.47;;;;;;;4.54;60.39;97250.59;5008173;28;20038;-78
2024/02/29 03:57:30;;;;;;;19.70;7.82;;;;;;;4.55;59.67;97245.25;5015115;28;20048;-79
2024/02/29 03:59:55;;;;;;;16.98;8.05;;;;;;;4.52;59.26;97240.47;4999652;28;20038;-79
2024/02/29 04:02:22;;;;;;;15.25;6.82;;;;;;;4.54;59.13;97250.59;5009091;28;20046;-79
2024/02/29 04:04:47;;;;;;;17.23;7.70;;;;;;;4.48;59.41;97247.06;5004085;28;20249;-79
2024/02/29 04:07:13;;;;;;;16.25;6.97;;;;;;;4.42;59.69;97242.69;4991423;28;20167;-79
2024/02/29 04:09:39;;;;;;;15.45;6.78;;;;;;;4.39;59.15;97243.13;4975627;28;20061;-78
2024/02/29 04:12:04;;;;;;;14.93;6.93;;;;;;;4.34;59.85;97232.63;4993681;28;20030;-79
2024/02/29 04:14:30;;;;;;;13.68;7.10;;;;;;;4.34;59.68;97235.22;5008060;28;20406;-81
2024/02/29 04:16:56;;;;;;;15.45;7.25;;;;;;;4.28;59.66;97231.63;4976019;28;20104;-83
2024/02/29 04:19:21;;;;;;;12.63;6.35;;;;;;;4.18;60.17;97229.50;4982484;28;20042;-82
2024/02/29 04:21:46;;;;;;;16.90;6.88;;;;;;;4.18;59.87;97232.06;5003029;28;20034;-83
2024/02/29 04:24:12;;;;;;;15.23;7.95;;;;;;;4.19;60.47;97228.47;5007773;28;20029;-83
2024/02/29 04:26:37;;;;;;;19.13;8.23;;;;;;;4.15;59.80;97224.75;4980643;28;20029;-83
2024/02/29 04:29:03;;;;;;;16.60;8.38;;;;;;;4.12;60.06;97225.91;5010442;28;20033;-83
2024/02/29 04:31:28;;;;;;;19.35;8.60;;;;;;;4.14;59.88;97225.72;5008185;28;20026;-83
2024/02/29 04:33:53;;;;;;;16.95;8.27;;;;;;;4.10;60.26;97229.69;4975459;28;20385;-83
2024/02/29 04:36:19;;;;;;;18.90;7.65;;;;;;;3.97;60.26;97222.00;4993375;28;20033;-83
2024/02/29 04:38:44;;;;;;;17.75;7.68;;;;;;;4.01;60.89;97218.00;5008262;28;20046;-83
2024/02/29 04:41:10;;;;;;;20.25;8.20;;;;;;;4.00;60.92;97219.03;4976584;28;20092;-83
2024/02/29 04:43:35;;;;;;;18.58;8.02;;;;;;;3.98;60.63;97216.63;5005420;28;20478;-83
2024/02/29 04:46:01;;;;;;;21.40;8.85;;;;;;;3.96;60.88;97221.22;4994829;28;20061;-79
2024/02/29 04:48:27;;;;;;;21.58;9.00;;;;;;;3.98;61.00;97210.72;4975308;28;20381;-79
2024/02/29 04:50:52;;;;;;;19.20;7.88;;;;;;;3.93;61.08;97214.66;5016086;28;20034;-79
2024/02/29 04:53:18;;;;;;;17.58;8.13;;;;;;;3.93;61.13;97209.50;4990599;28;20356;-79
2024/02/29 04:55:44;;;;;;;15.55;7.07;;;;;;;3.98;60.79;97215.84;4995836;28;20029;-79
2024/02/29 04:58:10;;;;;;;17.30;7.90;;;;;;;4.05;60.44;97209.69;4976768;28;20030;-79
2024/02/29 05:00:36;;;;;;;12.15;5.90;;;;;;;4.12;60.27;97210.47;5007290;28;20065;-79
2024/02/29 05:03:01;;;;;;;12.88;6.63;;;;;;;4.11;60.23;97210.66;5006977;28;20029;-80
2024/02/29 05:05:27;;;;;;;12.95;6.25;;;;;;;4.05;60.36;97204.53;5008484;28;20029;-79
2024/02/29 05:07:54;;;;;;;13.43;6.32;;;;;;;3.94;60.96;97192.25;4983484;28;20034;-79
2024/02/29 05:10:19;;;;;;;13.23;6.55;;;;;;;3.90;60.69;97197.03;4991515;28;20315;-79
2024/02/29 05:12:50;;;;;;;14.10;7.25;;;;;;;3.95;61.03;97186.13;4990034;28;20436;-79
2024/02/29 05:15:23;;;;;;;12.63;6.57;;;;;;;4.09;60.71;97192.03;5007027;28;20071;-79
2024/02/29 05:17:49;;;;;;;13.57;6.40;;;;;;;3.91;60.78;97184.97;4975120;28;20042;-80
2024/02/29 05:20:15;;;;;;;15.25;7.93;;;;;;;3.84;60.88;97179.81;4999205;28;20045;-79
2024/02/29 05:22:41;;;;;;;13.32;6.05;;;;;;;3.84;61.13;97179.81;5008129;28;20045;-79
2024/02/29 05:25:09;;;;;;;16.25;7.25;;;;;;;3.77;61.07;97176.47;5006932;28;20045;-79
2024/02/29 05:27:36;;;;;;;15.68;7.95;;;;;;;3.78;60.92;97177.25;5000319;28;20038;-79
2024/02/29 05:30:02;;;;;;;16.40;6.70;;;;;;;3.71;61.55;97164.38;4990438;28;20029;-79
2024/02/29 05:32:28;;;;;;;17.27;8.20;;;;;;;3.78;61.02;97170.31;5002190;28;20082;-79
2024/02/29 05:34:53;;;;;;;16.45;7.78;;;;;;;3.78;61.41;97178.03;4995044;28;20113;-79
2024/02/29 05:37:19;;;;;;;18.20;8.68;;;;;;;3.72;60.92;97178.84;4998197;28;20090;-79
2024/02/29 05:39:44;;;;;;;15.32;7.85;;;;;;;3.67;61.37;97170.94;4984868;28;20064;-79
2024/02/29 05:42:09;;;;;;;17.75;8.70;;;;;;;3.56;62.14;97164.59;4993117;28;20120;-79
2024/02/29 05:44:35;;;;;;;20.60;9.30;;;;;;;3.63;62.00;97162.00;4999914;28;20401;-79
2024/02/29 05:47:00;;;;;;;16.40;8.27;;;;;;;3.66;61.34;97164.19;4974230;28;20083;-80
2024/02/29 05:49:26;;;;;;;14.98;7.15;;;;;;;3.73;60.85;97160.59;4982666;28;20192;-80
2024/02/29 05:51:51;;;;;;;17.70;7.60;;;;;;;3.81;60.13;97164.75;4990012;28;20052;-79
2024/02/29 05:54:17;;;;;;;13.18;6.57;;;;;;;3.65;60.28;97155.69;4989951;28;20034;-79
2024/02/29 05:56:42;;;;;;;12.75;6.80;;;;;;;3.58;60.51;97156.66;5001387;28;20037;-83
2024/02/29 05:59:08;;;;;;;14.70;6.47;;;;;;;3.56;61.19;97151.72;4992060;28;20077;-83
2024/02/29 06:01:34;;;;;;;15.90;7.43;;;;;;;3.60;61.28;97167.53;4998319;28;20029;-84
2024/02/29 06:03:59;;;;;;;17.23;7.65;;;;;;;3.63;60.22;97167.16;5005656;28;20049;-84
2024/02/29 06:06:24;;;;;;;14.02;6.53;;;;;;;3.59;61.34;97153.09;5014003;28;20485;-83
2024/02/29 06:08:50;;;;;;;13.30;6.40;;;;;;;3.62;60.96;97160.44;4983083;28;20486;-83
2024/02/29 06:11:15;;;;;;;11.93;6.28;;;;;;;3.59;60.65;97159.03;4978196;28;20375;-83
2024/02/29 06:13:41;;;;;;;12.07;6.38;;;;;;;3.57;61.39;97145.59;4977914;28;20371;-83
2024/02/29 06:16:07;;;;;;;11.57;5.80;;;;;;;3.52;61.31;97146.16;4995207;28;20038;-83
2024/02/29 06:18:35;;;;;;;13.98;5.93;;;;;;;3.61;61.31;97156.25;5001642;28;20144;-83
2024/02/29 06:21:01;;;;;;;12.63;6.30;;;;;;;3.57;61.57;97153.31;5007356;28;20034;-83
2024/02/29 06:23:27;;;;;;;11.32;5.85;;;;;;;3.58;61.50;97149.72;5010243;28;20042;-83
2024/02/29 06:25:52;;;;;;;14.02;5.93;;;;;;;3.63;61.12;97146.56;4993867;28;20033;-83
2024/02/29 06:28:18;;;;;;;11.23;5.38;;;;;;;3.60;61.63;97141.81;5012569;28;20071;-83
2024/02/29 06:30:43;;;;;;;12.70;6.95;;;;;;;3.61;61.21;97141.59;4999835;28;20463;-84
2024/02/29 06:33:09;;;;;;;14.55;6.38;;;;;;;3.60;61.23;97142.63;5008969;28;20104;-83
2024/02/29 06:35:34;;;;;;;12.45;5.80;;;;;;;3.62;61.63;97148.34;4996065;28;20498;-84
2024/02/29 06:38:03;;;;;;;13.30;5.78;;;;;;;3.62;60.94;97138.03;4978651;28;20034;-84
2024/02/29 06:40:28;;;;;;;12.25;5.95;;;;;;;3.62;61.11;97143.19;5000759;28;20486;-84
2024/02/29 06:42:53;;;;;;;13.30;6.28;;;;;;;3.59;61.40;97137.66;4982707;28;20083;-84
2024/02/29 06:45:19;;;;;;;14.23;5.70;;;;;;;3.61;61.70;97135.66;5009328;28;20425;-84
2024/02/29 06:47:44;;;;;;;13.52;6.70;;;;;;;3.61;61.69;97133.09;4977579;28;20189;-84
2024/02/29 06:50:10;;;;;;;10.70;5.30;;;;;;;3.63;61.64;97136.25;5008830;28;20672;-84
2024/02/29 06:52:36;;;;;;;13.35;6.40;;;;;;;3.72;61.77;97140.22;4987811;28;20125;-84
2024/02/29 06:55:06;;;;;;;9.80;5.03;;;;;;;3.70;61.61;97142.19;5006809;28;20120;-83
2024/02/29 06:57:32;;;;;;;10.75;5.72;;;;;;;3.78;61.19;97139.41;5017099;28;20034;-84
2024/02/29 06:59:57;;;;;;;9.85;4.82;;;;;;;3.90;60.54;97145.50;4977458;28;20030;-84
2024/02/29 07:02:23;;;;;;;9.45;4.95;;;;;;;3.85;60.63;97142.75;4981474;28;20029;-83
2024/02/29 07:04:48;;;;;;;9.20;4.63;;;;;;;3.81;60.51;97143.38;5013245;28;20401;-84
2024/02/29 07:07:14;;;;;;;8.95;4.93;;;;;;;3.76;61.13;97138.81;4978640;28;20033;-79
2024/02/29 07:09:43;;;;;;;11.05;5.25;;;;;;;3.80;61.21;97136.63;4987296;28;20046;-79
2024/02/29 07:12:08;;;;;;;10.48;4.57;;;;;;;3.74;61.17;97133.09;4984091;28;20026;-79
2024/02/29 07:14:34;;;;;;;9.70;4.65;;;;;;;3.80;60.86;97128.91;5008705;28;20398;-79
2024/02/29 07:16:59;;;;;;;9.18;4.63;;;;;;;3.90;60.70;97130.06;5009015;28;20040;-80
2024/02/29 07:19:25;;;;;;;10.18;4.80;;;;;;;3.93;61.72;97129.66;4993478;28;20120;-79
2024/02/29 07:21:52;;;;;;;8.88;4.60;;;;;;;4.13;61.04;97131.41;5004040;28;20379;-79
2024/02/29 07:24:17;;;;;;;8.55;4.40;;;;;;;4.11;60.77;97128.22;5009928;28;20038;-79
2024/02/29 07:26:43;;;;;;;11.82;5.57;;;;;;;4.13;60.96;97115.94;5003282;28;20034;-79
2024/02/29 07:29:08;;;;;;;9.40;4.68;;;;;;;4.27;61.32;97117.44;4992844;28;20038;-79
2024/02/29 07:31:34;;;;;;;9.45;5.38;;;;;;;4.36;60.71;97122.38;5008780;28;20046;-79
2024/02/29 07:33:59;;;;;;;10.43;5.35;;;;;;;4.40;61.28;97110.66;4976210;28;20037;-78
2024/02/29 07:36:25;;;;;;;12.48;7.40;;;;;;;4.55;60.50;97116.31;5010371;28;20038;-78
2024/02/29 07:38:51;;;;;;;9.95;6.13;;;;;;;4.62;60.47;97114.50;4992288;28;20048;-78
2024/02/29 07:41:16;;;;;;;7.85;4.53;;;;;;;4.60;59.68;97103.59;5007610;28;20109;-78
2024/02/29 07:43:42;;;;;;;8.52;4.72;;;;;;;4.62;60.49;97113.72;4975891;28;20046;-78
2024/02/29 07:46:08;;;;;;;10.35;5.15;;;;;;;4.67;59.98;97112.06;5006055;28;20037;-79
2024/02/29 07:48:34;;;;;;;10.18;4.75;;;;;;;4.75;59.28;97099.94;5008599;28;20034;-78
2024/02/29 07:51:00;;;;;;;9.52;4.90;;;;;;;4.77;59.21;97110.84;4991910;28;20505;-78
2024/02/29 07:53:26;;;;;;;10.00;5.28;;;;;;;4.73;58.78;97107.09;4991813;28;20049;-78
2024/02/29 07:55:51;;;;;;;9.10;4.72;;;;;;;4.71;60.24;97096.19;5008009;28;20061;-78
2024/02/29 07:58:16;;;;;;;8.95;4.60;;;;;;;4.75;60.05;97089.63;5006305;28;20037;-78
2024/02/29 08:00:42;;;;;;;9.93;5.05;;;;;;;4.90;59.11;97094.47;5002359;28;20483;-79
2024/02/29 08:03:07;;;;;;;10.52;5.75;;;;;;;5.05;58.95;97092.38;5009260;28;20034;-78
2024/02/29 08:05:34;;;;;;;9.63;4.72;;;;;;;5.14;59.40;97098.06;4975799;28;20034;-79
2024/02/29 08:08:00;;;;;;;11.77;5.22;;;;;;;5.15;59.07;97084.16;4989902;28;20022;-78
2024/02/29 08:10:26;;;;;;;10.02;5.45;;;;;;;5.27;59.66;97090.22;4991837;28;20042;-78
2024/02/29 08:12:51;;;;;;;9.63;5.13;;;;;;;5.46;58.74;97092.84;4986608;28;20163;-78
2024/02/29 08:15:17;;;;;;;9.68;5.38;;;;;;;5.59;58.75;97090.13;4991280;28;20038;-78
2024/02/29 08:17:42;;;;;;;10.48;4.85;;;;;;;5.70;58.47;97093.78;5008264;28;20038;-78
2024/02/29 08:20:08;;;;;;;9.48;5.32;;;;;;;5.73;58.88;97094.16;5007639;28;20038;-78
2024/02/29 08:22:36;;;;;;;8.88;4.80;;;;;;;5.80;58.97;97088.91;5007735;28;20085;-78
2024/02/29 08:25:01;;;;;;;12.55;6.20;;;;;;;5.86;58.72;97093.22;5007906;28;20034;-78
2024/02/29 08:27:26;;;;;;;10.20;5.43;;;;;;;5.88;58.35;97085.22;4981409;28;20033;-78
2024/02/29 08:29:52;;;;;;;8.70;4.63;;;;;;;6.14;58.54;97074.63;5003277;28;20068;-78
2024/02/29 08:32:17;;;;;;;10.57;5.88;;;;;;;6.42;58.66;97078.44;5007318;28;20111;-78
2024/02/29 08:34:42;;;;;;;11.73;5.55;;;;;;;6.57;58.47;97089.19;5007738;28;20084;-78
2024/02/29 08:37:08;;;;;;;11.65;6.18;;;;;;;6.56;58.29;97084.22;4993134;28;20029;-78
2024/02/29 08:39:34;;;;;;;12.13;6.50;;;;;;;6.69;58.09;97080.66;4975759;28;20034;-78
2024/02/29 08:42:00;;;;;;;16.27;6.13;;;;;;;6.75;58.03;97084.94;4983122;28;20037;-78
2024/02/29 08:44:25;;;;;;;10.40;6.05;;;;;;;6.83;57.91;97083.84;4991349;28;20397;-78
2024/02/29 08:46:51;;;;;;;11.30;6.25;;;;;;;6.99;58.14;97074.63;5007601;28;20466;-78
2024/02/29 08:49:16;;;;;;;12.80;6.55;;;;;;;7.05;58.50;97068.59;4974802;28;20164;-78
2024/02/29 08:51:42;;;;;;;12.77;7.00;;;;;;;7.19;57.92;97075.09;4974618;28;20452;-79
2024/02/29 08:54:07;;;;;;;10.82;5.63;;;;;;;7.37;59.00;97063.88;4975194;28;20058;-78
2024/02/29 08:56:32;;;;;;;11.02;6.30;;;;;;;7.40;58.98;97063.41;5007140;28;20293;-78
2024/02/29 08:58:58;;;;;;;12.05;6.10;;;;;;;7.45;58.35;97058.34;5007425;28;20490;-78
2024/02/29 09:01:23;;;;;;;11.10;6.78;;;;;;;7.57;58.73;97052.34;5008362;28;20069;-78
2024/02/29 09:03:48;;;;;;;12.68;7.18;;;;;;;7.73;57.97;97050.84;4990781;28;20034;-78
2024/02/29 09:06:14;;;;;;;14.73;7.88;;;;;;;7.82;58.93;97052.09;4974457;28;20029;-79
2024/02/29 09:08:40;;;;;;;11.77;7.00;;;;;;;7.90;58.15;97046.53;4991302;28;20081;-79
2024/02/29 09:11:05;;;;;;;13.20;7.13;;;;;;;8.16;58.40;97049.63;5008510;28;20100;-79
2024/02/29 09:13:31;;;;;;;15.77;8.30;;;;;;;8.23;57.82;97047.66;5010899;28;20061;-78
2024/02/29 09:15:56;;;;;;;13.57;8.20;;;;;;;8.49;57.19;97048.16;4990553;28;20034;-79
2024/02/29 09:18:23;;;;;;;13.85;8.32;;;;;;;8.44;58.00;97036.66;5006389;28;20037;-79
2024/02/29 09:20:49;;;;;;;13.98;7.63;;;;;;;8.75;56.76;97049.34;4990837;28;20486;-79
2024/02/29 09:23:15;;;;;;;12.43;7.28;;;;;;;8.71;56.97;97038.66;5006335;28;20385;-79
2024/02/29 09:25:40;;;;;;;12.52;7.95;;;;;;;8.86;57.47;97034.72;4990887;28;20046;-79
2024/02/29 09:28:06;;;;;;;14.23;8.00;;;;;;;9.00;56.60;97031.56;5004447;28;20095;-83
2024/02/29 09:30:31;;;;;;;15.15;8.60;;;;;;;9.07;57.36;97035.81;5007908;28;20479;-83
2024/02/29 09:32:56;;;;;;;14.30;8.13;;;;;;;9.03;57.36;97027.72;4986747;28;20474;-84
2024/02/29 09:35:22;;;;;;;12.52;7.25;;;;;;;9.05;57.34;97032.66;4993300;28;20067;-84
2024/02/29 09:37:48;;;;;;;13.60;8.25;;;;;;;9.02;57.52;97028.75;5008728;28;20038;-85
2024/02/29 09:40:15;;;;;;;13.80;7.85;;;;;;;9.19;57.80;97020.94;4978662;28;20096;-83
2024/02/29 09:42:42;;;;;;;14.13;7.68;;;;;;;9.28;57.30;97016.88;4996205;28;20037;-83
2024/02/29 09:45:12;;;;;;;12.88;8.32;;;;;;;9.45;56.92;97016.84;4979132;28;20026;-84
2024/02/29 09:47:41;;;;;;;12.32;7.60;;;;;;;9.55;56.76;97019.56;4988638;28;20518;-85
2024/02/29 09:50:11;;;;;;;13.18;7.72;;;;;;;9.77;56.21;97013.59;5011934;28;20037;-84
2024/02/29 09:52:38;;;;;;;14.18;8.52;;;;;;;9.90;55.74;97010.63;4994468;28;20485;-86
2024/02/29 09:55:05;;;;;;;15.02;8.48;;;;;;;9.91;55.91;97012.19;4994470;28;20025;-85
2024/02/29 09:57:37;;;;;;;12.00;7.50;;;;;;;9.98;56.07;97006.81;4997415;28;20095;-85
2024/02/29 10:00:03;;;;;;;13.65;7.70;;;;;;;10.07;56.17;97000.13;4981008;28;20033;-85
2024/02/29 10:02:28;;;;;;;14.02;7.68;;;;;;;10.19;55.77;97010.38;4987736;28;20413;-85
2024/02/29 10:04:53;;;;;;;12.63;7.65;;;;;;;10.34;55.73;97001.22;4994525;28;20030;-84
2024/02/29 10:07:19;;;;;;;12.15;7.60;;;;;;;10.63;54.62;96994.69;4978061;28;20036;-84
2024/02/29 10:09:45;;;;;;;12.93;7.28;;;;;;;10.81;53.57;96996.13;4978475;28;20124;-84
2024/02/29 10:12:20;;;;;;;13.48;7.68;;;;;;;10.98;53.61;96989.97;4977833;28;20068;-84
2024/02/29 10:14:46;;;;;;;12.68;7.85;;;;;;;11.04;54.05;96979.31;5006006;28;20091;-84
2024/02/29 10:17:12;;;;;;;10.73;6.63;;;;;;;11.23;53.42;96973.69;5011635;28;20034;-84
2024/02/29 10:19:38;;;;;;;12.18;7.80;;;;;;;11.47;52.95;96981.13;4978447;28;20497;-79
2024/02/29 10:22:04;;;;;;;13.90;7.82;;;;;;;11.62;52.20;96968.13;5006721;28;20061;-79
2024/02/29 10:24:31;;;;;;;12.60;7.65;;;;;;;11.87;51.65;96969.25;4993920;28;20121;-79
2024/02/29 10:27:03;;;;;;;14.85;8.20;;;;;;;12.04;51.29;96966.44;4994902;28;20129;-79
2024/02/29 10:29:31;;;;;;;11.00;6.80;;;;;;;12.21;50.43;96964.38;5010019;28;20564;-79
2024/02/29 10:31:58;;;;;;;12.35;7.35;;;;;;;12.44;49.85;96952.66;5009576;28;20033;-79
2024/02/29 10:34:24;;;;;;;9.55;6.35;;;;;;;12.57;48.56;96955.78;4993529;28;20536;-79
2024/02/29 10:36:49;;;;;;;11.63;7.00;;;;;;;12.74;49.70;96957.06;4979238;28;20033;-79
2024/02/29 10:39:14;;;;;;;10.88;6.70;;;;;;;12.81;48.81;96953.41;5008070;28;20069;-84
2024/02/29 10:41:47;;;;;;;10.48;7.18;;;;;;;13.00;49.08;96943.16;5003779;28;20037;-84
2024/02/29 10:44:13;;;;;;;9.73;6.20;;;;;;;13.26;48.40;96946.47;5010415;28;20527;-84
2024/02/29 10:46:41;;;;;;;9.00;5.88;;;;;;;13.45;47.65;96941.47;4978230;28;20030;-86
2024/02/29 10:49:10;;;;;;;8.15;5.00;;;;;;;13.53;47.14;96945.38;5008877;28;20038;-84
2024/02/29 10:51:42;;;;;;;9.38;5.80;;;;;;;13.66;45.22;96940.34;4993504;28;20048;-84
2024/02/29 10:54:20;;;;;;;7.78;5.68;;;;;;;13.94;44.49;96932.84;4991391;28;20405;-84
2024/02/29 10:56:48;;;;;;;8.25;5.30;;;;;;;14.12;44.79;96925.41;5017297;28;20383;-83
2024/02/29 10:59:17;;;;;;;8.02;5.28;;;;;;;14.03;45.34;96919.97;4977538;28;20026;-84
2024/02/29 11:01:44;;;;;;;7.82;5.25;;;;;;;14.09;45.74;96921.50;5006777;28;20120;-82
2024/02/29 11:04:09;;;;;;;6.63;4.78;;;;;;;14.22;43.70;96912.22;5013078;28;20073;-83
2024/02/29 11:06:48;;;;;;;8.63;5.20;;;;;;;14.40;41.99;96910.78;5006291;28;20096;-84
2024/02/29 11:09:19;;;;;;;7.18;4.63;;;;;;;14.47;40.85;96902.63;5011173;28;20037;-84
2024/02/29 11:11:47;;;;;;;5.88;4.45;;;;;;;14.45;41.19;96902.13;5004059;28;20064;-83
2024/02/29 11:14:13;;;;;;;7.45;5.18;;;;;;;14.41;42.62;96902.66;4995115;28;20037;-83
2024/02/29 11:16:42;;;;;;;6.88;4.63;;;;;;;14.64;42.47;96908.25;5000182;28;20038;-84
2024/02/29 11:19:12;;;;;;;7.43;5.07;;;;;;;14.49;39.88;96898.66;4990617;28;20040;-84
2024/02/29 11:21:37;;;;;;;5.85;4.35;;;;;;;14.72;40.42;96891.94;5009243;28;20117;-84
2024/02/29 11:24:05;;;;;;;6.55;4.72;;;;;;;14.79;40.29;96887.13;5009373;28;20132;-84
2024/02/29 11:26:32;;;;;;;6.72;4.35;;;;;;;15.10;39.42;96880.78;5009440;28;20486;-84
2024/02/29 11:28:59;;;;;;;6.13;4.55;;;;;;;15.42;39.69;96880.13;4993233;28;20490;-79